首页
METAR-TAF:

METAR-TAF

机场 :

图勒空军基地

图勒, 格陵兰

纬度: 76-32N, 经度: 068-42W, 海拔: 77米

当前天气观测

该预报发布于1小时和15分钟前的21:56 UTC
风速7节,风向东转东南
温度 -29°C
湿度 68%
气压 1007 hPa
能见度10公里或以上
天空无云

METAR: BGTL 232156Z AUTO 11007KT 9999 CLR M29/M33 A2973 RMK AO2 SLP061 T12931329 TSNO CHINO RWY26 $

时间: 19:11 (23:11 UTC)

预报

该预报发布于3小时和6分钟前的20:05 UTC
预报有效从23日的 20点(UTC)到 24日的 24点(UTC)
风速9节,风向东转东南,在东转东北之间变化
能见度10公里或以上
散云层高于8000英尺
成为
从 24日的 10点(UTC)到 24日的 11点(UTC)
风速12节,风向东转东南
能見度: 2410
多云层高于5000英尺

TAF: BGTL 232005Z 2320/2424 11009KT 9999 SCT080 QNH2975INS WND 070V170 BECMG 2410/2411 12012KT 9999 BKN050 QNH2983INS TXM27/2418Z TNM31/2403Z LAST NO AMDS AFT 2320 NEXT 2410

超过4000个机场的气象观测和天气预报(METAR&TAF报告)。

可查询的气象台以黄色和红色小点在地图上表示。

将鼠标移到小点上方,可查看气象台名称。

然后点击查看天气观测和预报。

如需切换地图:点击带黑十字的绿色按钮放大地图;点击带横线的绿色按钮缩小地图;或者点击绿色箭头查看邻近地区的地图。


METAR-TAF: